Time;durP1;ratioP1;P1;durP2;ratioP2;P2;SDS_P1;SDS_P2;PMS_P1;PMS_P2;Temp;Humidity;BMP_temperature;BMP_pressure;BME280_temperature;BME280_humidity;BME280_pressure;Samples;Min_cycle;Max_cycle;Signal;HPM_P1;HPM_P2
2022/01/14 00:01:43;;;;;;;18.80;12.25;;;3.40;99.90;;;;;;4974557;28;20194;-78
2022/01/14 00:04:09;;;;;;;19.80;12.73;;;3.40;99.90;;;;;;4974252;28;20253;-77
2022/01/14 00:06:34;;;;;;;18.95;12.45;;;3.50;99.90;;;;;;4974329;28;20189;-77
2022/01/14 00:09:07;;;;;;;17.88;12.32;;;3.50;99.90;;;;;;4974770;28;20166;-77
2022/01/14 00:11:48;;;;;;;17.35;11.45;;;3.40;99.90;;;;;;4972581;28;20244;-77
2022/01/14 00:16:40;;;;;;;19.30;11.90;;;3.30;99.90;;;;;;4977618;28;20626;-77
2022/01/14 00:19:06;;;;;;;19.17;11.38;;;3.20;99.90;;;;;;4978010;28;20170;-77
2022/01/14 00:21:34;;;;;;;16.65;12.02;;;3.40;99.90;;;;;;4978189;28;20194;-79
2022/01/14 00:24:14;;;;;;;17.38;10.82;;;3.30;99.90;;;;;;4978280;28;20181;-78
2022/01/14 00:32:58;;;;;;;18.63;11.63;;;3.50;99.90;;;;;;4979176;28;20275;-76
2022/01/14 00:34:58;;;;;;;16.70;11.50;;;3.40;99.90;;;;;;4977586;28;20177;-77
2022/01/14 00:37:24;;;;;;;15.88;11.02;;;3.30;99.90;;;;;;4978131;28;20174;-76
2022/01/14 00:39:49;;;;;;;17.02;10.68;;;3.30;99.90;;;;;;4977424;28;20666;-76
2022/01/14 00:42:15;;;;;;;17.15;11.20;;;3.40;99.90;;;;;;4977402;28;20179;-76
2022/01/14 00:44:41;;;;;;;14.10;11.45;;;3.30;99.90;;;;;;4977537;28;20554;-76
2022/01/14 00:47:07;;;;;;;18.20;11.32;;;3.10;99.90;;;;;;4993022;28;20181;-77
2022/01/14 00:49:32;;;;;;;19.10;10.48;;;3.00;99.90;;;;;;4976148;28;20520;-77
2022/01/14 00:51:58;;;;;;;20.33;11.50;;;2.90;99.90;;;;;;4977762;28;20208;-76
2022/01/14 00:54:25;;;;;;;16.92;10.90;;;2.90;99.90;;;;;;4978400;28;20170;-77
2022/01/14 00:57:13;;;;;;;21.23;11.10;;;3.00;99.90;;;;;;4978506;28;20166;-76
2022/01/14 00:59:39;;;;;;;17.25;11.43;;;2.90;99.90;;;;;;4978315;28;20298;-76
2022/01/14 01:02:05;;;;;;;18.63;11.35;;;3.00;99.90;;;;;;4993647;28;20205;-76
2022/01/14 01:04:37;;;;;;;16.13;11.15;;;3.00;99.90;;;;;;4977264;28;20173;-77
2022/01/14 01:07:06;;;;;;;17.17;9.45;;;2.90;99.90;;;;;;4976633;28;20547;-77
2022/01/14 01:09:32;;;;;;;20.48;11.50;;;3.00;99.90;;;;;;4976226;28;20180;-77
2022/01/14 01:12:13;;;;;;;19.38;11.35;;;3.20;99.90;;;;;;4976642;28;20678;-77
2022/01/14 01:14:49;;;;;;;17.02;11.45;;;3.10;99.90;;;;;;4976001;28;20578;-77
2022/01/14 01:17:16;;;;;;;23.40;10.77;;;3.00;99.90;;;;;;4976909;28;20181;-77
2022/01/14 01:19:41;;;;;;;20.42;11.05;;;3.30;99.90;;;;;;4977198;28;20172;-77
2022/01/14 01:22:08;;;;;;;14.60;10.43;;;3.10;99.90;;;;;;4977372;28;20713;-77
2022/01/14 01:24:34;;;;;;;15.40;10.57;;;2.90;99.90;;;;;;4977588;28;20170;-77
2022/01/14 01:27:05;;;;;;;22.52;12.00;;;2.90;99.90;;;;;;4976608;28;20241;-77
2022/01/14 01:29:46;;;;;;;19.73;10.45;;;3.10;99.90;;;;;;4975996;28;20211;-77
2022/01/14 01:32:15;;;;;;;14.88;9.57;;;3.10;99.90;;;;;;4976249;28;20571;-77
2022/01/14 01:34:40;;;;;;;14.57;10.60;;;3.10;99.90;;;;;;4976431;28;20170;-77
2022/01/14 01:37:06;;;;;;;14.43;10.55;;;3.10;99.90;;;;;;4976226;28;20178;-78
2022/01/14 01:39:34;;;;;;;17.17;11.32;;;3.00;99.90;;;;;;4976191;28;20173;-77
2022/01/14 01:42:05;;;;;;;14.75;10.82;;;2.80;99.90;;;;;;4976445;28;20177;-77
2022/01/14 01:44:31;;;;;;;17.30;11.18;;;2.60;99.90;;;;;;4975960;28;20264;-77
2022/01/14 01:46:57;;;;;;;15.32;10.48;;;2.60;99.90;;;;;;4976553;28;20206;-76
2022/01/14 01:49:25;;;;;;;15.80;11.10;;;3.00;99.90;;;;;;4976028;28;20181;-85
2022/01/14 01:51:52;;;;;;;16.10;11.23;;;2.80;99.90;;;;;;4975691;28;20202;-78
2022/01/14 01:54:19;;;;;;;18.95;12.82;;;2.80;99.90;;;;;;4976782;28;20235;-77
2022/01/14 01:56:45;;;;;;;19.80;12.63;;;3.00;99.90;;;;;;4991387;28;20530;-77
2022/01/14 01:59:12;;;;;;;18.75;11.90;;;3.30;99.90;;;;;;4984267;28;20177;-76
2022/01/14 02:01:41;;;;;;;17.48;12.45;;;3.40;99.90;;;;;;5004685;28;20563;-77
2022/01/14 02:04:07;;;;;;;24.23;13.40;;;3.50;99.90;;;;;;4989127;28;20166;-77
2022/01/14 02:06:34;;;;;;;25.30;12.50;;;3.20;99.90;;;;;;4989647;28;20177;-76
2022/01/14 02:09:00;;;;;;;17.45;11.45;;;3.10;99.90;;;;;;4979780;28;20257;-77
2022/01/14 02:11:26;;;;;;;17.70;11.32;;;3.00;99.90;;;;;;4977246;28;20229;-77
2022/01/14 02:13:54;;;;;;;19.52;12.18;;;2.80;99.90;;;;;;4978861;28;20166;-77
2022/01/14 02:24:34;;;;;;;22.50;11.82;;;2.80;99.90;;;;;;4975279;28;20534;-77
2022/01/14 02:27:00;;;;;;;16.33;11.68;;;2.80;99.90;;;;;;4989737;28;20177;-77
2022/01/14 02:29:27;;;;;;;26.08;12.43;;;3.00;99.90;;;;;;4974171;28;20220;-77
2022/01/14 02:31:53;;;;;;;27.60;11.48;;;3.10;99.90;;;;;;4975646;28;20225;-76
2022/01/14 02:34:19;;;;;;;20.98;12.18;;;3.00;99.90;;;;;;4975227;28;20174;-76
2022/01/14 02:36:46;;;;;;;17.55;10.98;;;2.80;99.90;;;;;;4974907;28;20181;-77
2022/01/14 02:39:14;;;;;;;28.33;13.02;;;2.90;99.90;;;;;;4974662;28;20209;-79
2022/01/14 02:41:42;;;;;;;28.92;13.52;;;3.10;99.90;;;;;;4975274;28;20681;-80
2022/01/14 02:44:12;;;;;;;24.67;11.90;;;3.20;99.90;;;;;;4989802;28;20218;-77
2022/01/14 02:46:48;;;;;;;21.13;13.50;;;3.20;99.90;;;;;;4975188;28;20178;-78
2022/01/14 02:49:14;;;;;;;20.23;12.02;;;3.20;99.90;;;;;;4973912;28;20161;-77
2022/01/14 02:51:40;;;;;;;17.23;12.75;;;3.20;99.90;;;;;;4974823;28;20255;-77
2022/01/14 02:54:20;;;;;;;18.73;11.07;;;3.10;99.90;;;;;;4973705;28;20173;-77
2022/01/14 02:56:48;;;;;;;22.63;11.98;;;3.00;99.90;;;;;;4973292;28;20189;-77
2022/01/14 02:59:16;;;;;;;22.42;12.32;;;3.00;99.90;;;;;;4974306;28;20169;-78
2022/01/14 03:01:44;;;;;;;17.17;11.82;;;2.80;99.90;;;;;;4989020;28;20674;-77
2022/01/14 03:04:10;;;;;;;18.05;11.52;;;2.90;99.90;;;;;;4989253;28;20182;-77
2022/01/14 03:06:36;;;;;;;20.08;12.02;;;2.90;99.90;;;;;;4974386;28;20174;-78
2022/01/14 03:09:02;;;;;;;22.95;12.73;;;3.00;99.90;;;;;;4974346;28;20221;-77
2022/01/14 03:11:41;;;;;;;18.25;11.90;;;3.10;99.90;;;;;;4973964;28;20213;-77
2022/01/14 03:14:09;;;;;;;16.90;12.07;;;2.90;99.90;;;;;;4973781;28;20208;-79
2022/01/14 03:16:41;;;;;;;16.23;11.63;;;2.80;99.90;;;;;;4989050;28;20158;-80
2022/01/14 03:19:13;;;;;;;23.92;14.32;;;2.90;99.90;;;;;;4974043;28;20500;-77
2022/01/14 03:21:41;;;;;;;24.23;13.63;;;2.90;99.90;;;;;;4974289;28;20194;-77
2022/01/14 03:26:40;;;;;;;40.83;13.38;;;3.00;99.90;;;;;;4973780;28;20185;-77
2022/01/14 03:29:06;;;;;;;19.95;13.13;;;2.90;99.90;;;;;;4989013;28;20623;-78
2022/01/14 03:31:32;;;;;;;21.70;12.27;;;3.00;99.90;;;;;;4973824;28;20221;-77
2022/01/14 03:33:57;;;;;;;31.60;13.20;;;3.00;99.90;;;;;;4974095;28;20281;-80
2022/01/14 03:36:23;;;;;;;24.08;13.77;;;2.90;99.90;;;;;;4973073;28;20174;-77
2022/01/14 03:38:49;;;;;;;22.40;14.18;;;2.80;99.90;;;;;;4989294;28;20226;-78
2022/01/14 03:41:14;;;;;;;26.63;14.10;;;2.70;99.90;;;;;;4989182;28;20546;-78
2022/01/14 03:43:41;;;;;;;21.10;12.45;;;2.70;99.90;;;;;;4974094;28;20206;-78
2022/01/14 03:46:07;;;;;;;26.67;13.90;;;2.50;99.90;;;;;;4974374;28;20174;-77
2022/01/14 03:48:33;;;;;;;31.40;14.20;;;2.40;99.90;;;;;;4975530;28;20174;-78
2022/01/14 03:50:59;;;;;;;25.08;14.38;;;2.60;99.90;;;;;;4977580;28;20558;-77
2022/01/14 03:53:24;;;;;;;28.25;14.52;;;2.80;99.90;;;;;;4993603;28;20223;-76
2022/01/14 03:55:50;;;;;;;24.77;13.00;;;3.00;99.90;;;;;;4977635;28;20703;-77
2022/01/14 03:58:16;;;;;;;26.33;13.40;;;2.90;99.90;;;;;;4978809;28;20170;-76
2022/01/14 04:00:41;;;;;;;28.33;14.13;;;2.90;99.90;;;;;;4977658;28;20190;-77
2022/01/14 04:03:07;;;;;;;31.02;14.25;;;2.90;99.90;;;;;;4977417;28;20185;-78
2022/01/14 04:05:34;;;;;;;24.77;15.55;;;2.80;99.90;;;;;;4977813;28;20173;-77
2022/01/14 04:07:59;;;;;;;26.08;14.93;;;2.80;99.90;;;;;;4977851;28;20170;-77
2022/01/14 04:10:26;;;;;;;24.80;14.43;;;2.80;99.90;;;;;;4977652;28;20256;-76
2022/01/14 04:15:36;;;;;;;23.88;14.15;;;3.20;99.90;;;;;;4977985;28;20535;-79
2022/01/14 04:18:13;;;;;;;28.92;13.38;;;2.90;99.90;;;;;;4976291;28;20166;-76
2022/01/14 04:20:39;;;;;;;27.25;15.45;;;2.80;99.90;;;;;;4977207;28;20212;-76
2022/01/14 04:23:07;;;;;;;33.20;16.35;;;3.10;99.90;;;;;;4977807;28;20220;-79
2022/01/14 04:25:34;;;;;;;36.63;16.67;;;3.30;99.90;;;;;;4976876;28;20235;-77
2022/01/14 04:28:00;;;;;;;22.85;14.10;;;3.20;99.90;;;;;;4992171;28;20186;-76
2022/01/14 04:30:26;;;;;;;24.75;13.80;;;3.10;99.90;;;;;;4976964;28;20186;-83
2022/01/14 04:32:51;;;;;;;23.77;15.13;;;2.90;99.90;;;;;;4978099;28;20169;-76
2022/01/14 04:35:18;;;;;;;27.73;14.63;;;3.10;99.90;;;;;;4975845;28;20178;-85
2022/01/14 04:37:43;;;;;;;25.38;14.52;;;3.10;99.90;;;;;;4976183;28;20228;-76
2022/01/14 04:40:10;;;;;;;33.45;14.95;;;3.30;99.90;;;;;;4991939;28;20197;-76
2022/01/14 04:42:37;;;;;;;29.45;15.93;;;3.40;99.90;;;;;;4977428;28;20591;-76
2022/01/14 04:45:04;;;;;;;25.55;14.85;;;3.20;99.90;;;;;;4977093;28;20539;-76
2022/01/14 04:47:47;;;;;;;22.65;14.50;;;3.00;99.90;;;;;;4977084;28;20174;-76
2022/01/14 04:50:17;;;;;;;35.13;15.35;;;3.00;99.90;;;;;;4976905;28;20197;-76
2022/01/14 04:52:44;;;;;;;31.38;16.50;;;3.00;99.90;;;;;;4977444;28;20649;-77
2022/01/14 04:55:11;;;;;;;36.55;17.35;;;3.20;99.90;;;;;;4976917;28;20172;-76
2022/01/14 04:57:37;;;;;;;29.27;16.38;;;3.10;99.90;;;;;;4976735;28;20166;-76
2022/01/14 05:00:09;;;;;;;31.50;16.45;;;3.00;99.90;;;;;;4991220;28;20222;-76
2022/01/14 05:02:36;;;;;;;32.72;16.75;;;3.10;99.90;;;;;;4976074;28;20198;-77
2022/01/14 05:05:03;;;;;;;36.75;16.73;;;3.20;99.90;;;;;;4991600;28;20249;-76
2022/01/14 05:07:29;;;;;;;33.15;15.63;;;3.10;99.90;;;;;;4976782;28;20174;-78
2022/01/14 05:10:15;;;;;;;24.38;14.90;;;3.10;99.90;;;;;;4976656;28;20198;-76
2022/01/14 05:12:40;;;;;;;23.48;13.73;;;3.10;99.90;;;;;;4991736;28;20265;-76
2022/01/14 05:15:07;;;;;;;30.65;16.52;;;3.20;99.90;;;;;;4976125;28;20261;-75
2022/01/14 05:17:33;;;;;;;27.15;14.55;;;3.10;99.90;;;;;;4976795;28;20678;-76
2022/01/14 05:19:59;;;;;;;24.10;14.90;;;3.20;99.90;;;;;;4976491;28;20297;-77
2022/01/14 05:22:25;;;;;;;21.73;14.02;;;3.10;99.90;;;;;;4977001;28;20228;-76
2022/01/14 05:24:51;;;;;;;32.40;15.80;;;3.10;99.90;;;;;;4976322;28;20266;-76
2022/01/14 05:27:22;;;;;;;34.17;15.48;;;3.10;99.90;;;;;;4977085;28;20189;-77
2022/01/14 05:29:47;;;;;;;31.75;15.23;;;3.10;99.90;;;;;;4977002;28;20650;-77
2022/01/14 05:32:15;;;;;;;34.55;17.08;;;3.10;99.90;;;;;;4991734;28;20212;-77
2022/01/14 05:34:43;;;;;;;27.13;16.40;;;3.30;99.90;;;;;;4976679;28;20170;-76
2022/01/14 05:37:09;;;;;;;35.10;16.48;;;3.30;99.90;;;;;;4976269;28;20169;-77
2022/01/14 05:39:35;;;;;;;36.80;16.08;;;3.30;99.90;;;;;;4975914;28;20176;-76
2022/01/14 05:42:02;;;;;;;35.15;16.05;;;3.40;99.90;;;;;;4991033;28;20180;-76
2022/01/14 05:44:29;;;;;;;30.98;15.55;;;3.40;99.90;;;;;;4975945;28;20181;-77
2022/01/14 05:46:56;;;;;;;35.25;16.20;;;3.40;99.90;;;;;;4976870;28;20177;-76
2022/01/14 05:49:23;;;;;;;46.83;17.00;;;3.30;99.90;;;;;;4975759;28;20170;-77
2022/01/14 05:51:49;;;;;;;35.25;16.65;;;3.30;99.90;;;;;;4975466;28;20532;-76
2022/01/14 05:54:16;;;;;;;26.45;14.32;;;3.50;99.90;;;;;;4990685;28;20628;-77
2022/01/14 05:56:42;;;;;;;32.10;15.98;;;3.30;99.90;;;;;;4975573;28;20170;-77
2022/01/14 05:59:08;;;;;;;31.60;16.38;;;3.30;99.90;;;;;;4976416;28;20166;-77
2022/01/14 06:01:34;;;;;;;38.80;17.08;;;3.30;99.90;;;;;;4975361;28;20189;-76
2022/01/14 06:04:01;;;;;;;29.17;15.98;;;3.30;99.90;;;;;;4989869;28;20203;-76
2022/01/14 06:06:27;;;;;;;35.30;16.98;;;3.50;99.90;;;;;;4974895;28;20198;-76
2022/01/14 06:08:53;;;;;;;34.40;16.67;;;3.70;99.90;;;;;;4975359;28;20166;-77
2022/01/14 06:11:19;;;;;;;41.67;17.85;;;3.90;99.90;;;;;;4974217;28;20259;-76
2022/01/14 06:13:45;;;;;;;40.47;18.63;;;3.90;99.90;;;;;;4975519;28;20185;-77
2022/01/14 06:16:10;;;;;;;41.60;19.98;;;4.10;99.90;;;;;;4989456;28;20174;-76
2022/01/14 06:18:36;;;;;;;32.30;17.75;;;4.30;99.90;;;;;;4974731;28;20172;-76
2022/01/14 06:21:03;;;;;;;32.25;17.95;;;4.10;99.90;;;;;;4975631;28;20197;-76
2022/01/14 06:23:28;;;;;;;41.60;16.27;;;3.90;99.90;;;;;;4975781;28;20174;-76
2022/01/14 06:25:54;;;;;;;32.10;16.98;;;3.60;99.90;;;;;;4984224;28;20190;-77
2022/01/14 06:28:19;;;;;;;43.78;17.92;;;3.30;99.90;;;;;;4987198;28;20189;-76
2022/01/14 06:30:45;;;;;;;31.67;16.38;;;3.40;99.90;;;;;;4985040;28;20193;-76
2022/01/14 06:33:11;;;;;;;37.10;17.05;;;3.20;99.90;;;;;;4979060;28;20643;-76
2022/01/14 06:35:37;;;;;;;39.50;18.80;;;3.10;99.90;;;;;;4975104;28;20181;-76
2022/01/14 06:38:02;;;;;;;36.67;17.40;;;3.30;99.90;;;;;;4974934;28;20176;-76
2022/01/14 06:40:29;;;;;;;37.00;18.52;;;3.50;99.90;;;;;;4974725;28;20324;-76
2022/01/14 06:42:55;;;;;;;34.50;17.83;;;3.70;99.90;;;;;;4974372;28;20158;-76
2022/01/14 06:45:21;;;;;;;30.35;17.35;;;3.70;99.90;;;;;;4974615;28;20172;-87
2022/01/14 06:47:47;;;;;;;37.85;17.90;;;3.90;99.90;;;;;;4974206;28;20697;-76
2022/01/14 06:50:12;;;;;;;33.67;17.70;;;3.90;99.90;;;;;;4974112;28;20651;-77
2022/01/14 06:52:38;;;;;;;39.20;19.48;;;4.00;99.90;;;;;;4973702;28;20210;-76
2022/01/14 06:55:04;;;;;;;32.00;18.88;;;4.10;99.90;;;;;;4973850;28;20162;-76
2022/01/14 06:57:30;;;;;;;44.63;19.48;;;4.20;99.90;;;;;;4973645;28;20653;-76
2022/01/14 06:59:55;;;;;;;39.70;19.55;;;4.30;99.90;;;;;;4973798;28;20177;-90
2022/01/14 07:02:21;;;;;;;36.42;18.85;;;4.10;99.90;;;;;;4973875;28;20209;-76
2022/01/14 07:04:47;;;;;;;33.17;16.83;;;4.00;99.90;;;;;;4973658;28;20170;-76
2022/01/14 07:07:12;;;;;;;33.20;17.95;;;3.90;99.90;;;;;;4973709;28;20582;-76
2022/01/14 07:09:55;;;;;;;34.83;18.90;;;4.00;99.90;;;;;;4973818;28;20624;-78
2022/01/14 07:12:32;;;;;;;30.92;16.95;;;4.00;99.90;;;;;;4973706;28;20276;-76
2022/01/14 07:14:59;;;;;;;41.00;19.80;;;4.00;99.90;;;;;;4973894;28;20162;-77
2022/01/14 07:17:26;;;;;;;36.90;18.63;;;4.10;99.90;;;;;;4974618;28;20170;-76
2022/01/14 07:19:55;;;;;;;37.70;21.58;;;4.20;99.90;;;;;;4988361;28;20240;-76
2022/01/14 07:22:21;;;;;;;38.65;19.05;;;4.20;99.90;;;;;;4973374;28;20177;-76
2022/01/14 07:24:47;;;;;;;41.35;19.83;;;4.20;99.90;;;;;;4973490;28;20212;-76
2022/01/14 07:27:14;;;;;;;37.30;20.10;;;4.20;99.90;;;;;;4974065;28;20215;-76
2022/01/14 07:29:40;;;;;;;39.00;20.23;;;4.30;99.90;;;;;;4973976;28;20197;-78
2022/01/14 07:32:06;;;;;;;47.50;20.33;;;4.40;99.90;;;;;;4973911;28;20205;-79
2022/01/14 07:34:32;;;;;;;43.50;20.20;;;4.40;99.90;;;;;;4972706;28;20252;-78
2022/01/14 07:36:57;;;;;;;42.30;20.45;;;4.30;99.90;;;;;;4973890;28;20217;-77
2022/01/14 07:39:23;;;;;;;38.72;20.05;;;4.40;99.90;;;;;;4973648;28;20162;-79
2022/01/14 07:41:52;;;;;;;39.30;18.88;;;4.40;99.90;;;;;;4973748;28;20193;-78
2022/01/14 07:44:18;;;;;;;35.88;20.83;;;4.40;99.90;;;;;;4988289;28;20178;-77
2022/01/14 07:46:44;;;;;;;43.15;21.13;;;4.30;99.90;;;;;;4988286;28;20600;-86
2022/01/14 07:49:10;;;;;;;40.22;19.48;;;4.30;99.90;;;;;;4973283;28;20675;-77
2022/01/14 07:51:36;;;;;;;44.22;19.77;;;4.30;99.90;;;;;;4988138;28;20265;-82
2022/01/14 07:54:05;;;;;;;45.90;21.02;;;4.30;99.90;;;;;;4973267;28;20166;-78
2022/01/14 07:56:36;;;;;;;35.03;19.70;;;4.20;99.90;;;;;;4973160;28;20193;-78
2022/01/14 07:59:04;;;;;;;37.78;20.38;;;4.00;99.90;;;;;;4988387;28;20197;-78
2022/01/14 08:01:29;;;;;;;38.80;20.05;;;4.20;99.90;;;;;;4988835;28;20264;-79
2022/01/14 08:03:55;;;;;;;46.00;18.85;;;4.20;99.90;;;;;;4974532;28;20170;-77
2022/01/14 08:06:24;;;;;;;37.10;19.40;;;4.10;99.90;;;;;;4973476;28;20206;-78
2022/01/14 08:08:49;;;;;;;42.78;19.33;;;4.20;99.90;;;;;;4989359;28;20523;-79
2022/01/14 08:11:15;;;;;;;31.80;19.38;;;4.30;99.90;;;;;;4973639;28;20193;-79
2022/01/14 08:13:40;;;;;;;32.13;19.67;;;4.40;99.90;;;;;;4973590;28;20509;-82
2022/01/14 08:16:06;;;;;;;36.58;20.52;;;4.40;99.90;;;;;;4972262;28;20185;-77
2022/01/14 08:18:31;;;;;;;44.42;21.13;;;4.40;99.90;;;;;;4988623;28;20201;-80
2022/01/14 08:20:59;;;;;;;50.08;21.35;;;4.50;99.90;;;;;;4973582;28;20194;-77
2022/01/14 08:23:24;;;;;;;41.17;19.65;;;4.60;99.90;;;;;;4973431;28;20173;-89
2022/01/14 08:25:53;;;;;;;48.15;21.20;;;4.40;99.90;;;;;;4973561;28;20185;-83
2022/01/14 08:28:20;;;;;;;48.33;21.75;;;4.50;99.90;;;;;;4973656;28;20185;-86
2022/01/14 08:30:45;;;;;;;45.75;21.63;;;4.30;99.90;;;;;;4973813;28;20194;-78
2022/01/14 08:33:12;;;;;;;40.28;18.98;;;4.10;99.90;;;;;;4973466;28;20193;-89
2022/01/14 08:35:38;;;;;;;36.97;19.92;;;4.10;99.90;;;;;;4976474;28;20162;-78
2022/01/14 08:38:04;;;;;;;38.95;20.70;;;4.20;99.90;;;;;;4977083;28;20221;-84
2022/01/14 08:40:30;;;;;;;48.72;20.38;;;4.40;99.90;;;;;;4991683;28;20198;-85
2022/01/14 08:42:56;;;;;;;38.33;19.75;;;4.40;99.90;;;;;;4975911;28;20224;-77
2022/01/14 08:45:22;;;;;;;39.72;19.63;;;4.40;99.90;;;;;;4975658;28;20173;-85
2022/01/14 08:47:52;;;;;;;37.35;20.63;;;4.30;99.90;;;;;;4990612;28;20166;-78
2022/01/14 08:50:19;;;;;;;51.03;21.83;;;4.20;99.90;;;;;;4976848;28;20682;-77
2022/01/14 08:52:45;;;;;;;43.85;21.05;;;4.50;99.90;;;;;;4977028;28;20650;-78
2022/01/14 08:55:12;;;;;;;41.53;20.90;;;4.60;99.90;;;;;;4977306;28;20254;-77
2022/01/14 08:57:38;;;;;;;42.60;21.63;;;4.70;99.90;;;;;;4977263;28;20173;-76
2022/01/14 09:00:04;;;;;;;38.63;20.50;;;4.80;99.90;;;;;;4976518;28;20182;-78
2022/01/14 09:02:29;;;;;;;44.92;21.42;;;4.90;99.90;;;;;;4978518;28;20170;-80
2022/01/14 09:04:55;;;;;;;43.20;21.73;;;5.00;99.90;;;;;;4976349;28;20650;-79
2022/01/14 09:07:20;;;;;;;44.70;21.60;;;5.10;99.90;;;;;;4976310;28;20176;-79
2022/01/14 09:09:46;;;;;;;51.13;21.73;;;5.20;99.90;;;;;;4976195;28;20281;-79
2022/01/14 09:12:15;;;;;;;43.20;18.98;;;5.20;99.90;;;;;;4975921;28;20269;-78
2022/01/14 09:14:41;;;;;;;44.95;20.92;;;5.30;99.90;;;;;;4975910;28;20165;-78
2022/01/14 09:17:06;;;;;;;47.63;21.27;;;5.30;99.90;;;;;;4975810;28;20178;-78
2022/01/14 09:19:33;;;;;;;42.20;21.13;;;5.50;99.90;;;;;;4975962;28;20181;-79
2022/01/14 09:21:58;;;;;;;45.05;19.80;;;5.40;99.90;;;;;;4976039;28;20166;-79
2022/01/14 09:24:24;;;;;;;42.35;18.85;;;5.50;99.90;;;;;;4991027;28;20181;-78
2022/01/14 09:26:49;;;;;;;46.63;20.42;;;5.50;99.90;;;;;;4975832;28;20240;-77
2022/01/14 09:29:15;;;;;;;41.03;20.60;;;5.60;99.90;;;;;;4976077;28;20174;-81
2022/01/14 09:31:40;;;;;;;32.47;18.95;;;5.60;99.90;;;;;;4975517;28;20245;-78
2022/01/14 09:34:06;;;;;;;37.58;20.05;;;5.70;99.90;;;;;;4976269;28;20174;-79
2022/01/14 09:36:32;;;;;;;39.35;21.52;;;5.80;99.90;;;;;;4975684;28;20597;-79
2022/01/14 09:38:58;;;;;;;48.30;22.33;;;5.80;99.90;;;;;;4990581;28;20213;-78
2022/01/14 09:41:24;;;;;;;41.30;22.75;;;5.90;99.90;;;;;;4975589;28;20190;-79
2022/01/14 09:43:50;;;;;;;45.95;22.30;;;5.80;99.90;;;;;;4975655;28;20212;-78
2022/01/14 09:46:15;;;;;;;45.65;21.70;;;5.80;99.90;;;;;;4974446;28;20162;-78
2022/01/14 09:48:41;;;;;;;44.33;21.90;;;6.00;99.90;;;;;;4989737;28;20540;-86
2022/01/14 09:51:07;;;;;;;45.22;23.23;;;6.10;99.90;;;;;;4977537;28;20208;-80
2022/01/14 09:53:33;;;;;;;43.25;23.27;;;6.20;99.90;;;;;;4975440;28;20479;-82
2022/01/14 09:56:01;;;;;;;43.17;22.88;;;6.10;99.90;;;;;;4985058;28;20158;-82
2022/01/14 09:58:29;;;;;;;44.22;23.50;;;6.20;99.90;;;;;;4969837;28;20257;-80
2022/01/14 10:01:09;;;;;;;47.42;23.77;;;6.30;99.90;;;;;;4987732;28;20701;-82
2022/01/14 10:04:06;;;;;;;52.97;25.60;;;6.20;99.90;;;;;;4974846;28;20174;-79
2022/01/14 10:06:52;;;;;;;46.13;23.80;;;6.30;99.90;;;;;;4974144;28;20193;-78
2022/01/14 10:09:43;;;;;;;45.60;22.23;;;6.40;99.90;;;;;;4973399;28;20174;-82
2022/01/14 10:12:15;;;;;;;46.78;24.02;;;6.40;99.90;;;;;;4972424;28;20565;-80
2022/01/14 10:14:51;;;;;;;46.38;23.67;;;6.40;99.90;;;;;;4989617;28;20301;-77
2022/01/14 10:17:17;;;;;;;45.10;24.65;;;6.50;99.90;;;;;;4974994;28;20641;-82
2022/01/14 10:19:44;;;;;;;48.55;23.02;;;6.50;99.90;;;;;;4974965;28;20170;-78
2022/01/14 10:22:21;;;;;;;46.70;24.23;;;6.50;99.90;;;;;;4990133;28;20637;-81
2022/01/14 10:25:17;;;;;;;41.63;23.67;;;6.40;99.90;;;;;;4974276;28;20639;-78
2022/01/14 10:27:54;;;;;;;48.30;23.30;;;6.50;99.90;;;;;;4939318;29;20210;-82
2022/01/14 10:30:25;;;;;;;40.55;20.70;;;6.60;99.90;;;;;;4953179;28;20194;-82
2022/01/14 10:33:05;;;;;;;47.38;22.50;;;6.80;99.90;;;;;;4951037;29;20211;-85
2022/01/14 10:35:39;;;;;;;36.70;22.13;;;6.80;99.90;;;;;;4934880;29;20186;-79
2022/01/14 10:38:08;;;;;;;44.10;24.17;;;6.70;99.90;;;;;;4950298;29;20640;-78
2022/01/14 10:40:36;;;;;;;38.03;22.95;;;6.80;99.90;;;;;;4946471;28;20196;-84
2022/01/14 10:43:05;;;;;;;44.22;24.48;;;6.90;99.90;;;;;;4989131;28;20185;-78
2022/01/14 10:45:32;;;;;;;46.08;23.45;;;7.00;99.90;;;;;;4973533;28;20173;-81
2022/01/14 10:47:58;;;;;;;43.72;24.52;;;7.00;99.90;;;;;;4974606;28;20162;-79
2022/01/14 10:50:50;;;;;;;49.50;26.45;;;7.00;99.90;;;;;;4974248;28;20246;-79
2022/01/14 10:53:27;;;;;;;49.15;25.50;;;7.20;99.90;;;;;;4985500;28;20224;-77
2022/01/14 10:56:03;;;;;;;39.13;23.23;;;7.30;99.90;;;;;;4974140;28;20189;-79
2022/01/14 10:58:30;;;;;;;42.10;22.90;;;7.10;99.90;;;;;;4967271;28;20194;-77
2022/01/14 11:00:59;;;;;;;48.17;25.88;;;7.20;99.90;;;;;;4981594;28;20186;-79
2022/01/14 11:03:40;;;;;;;48.15;23.27;;;7.20;99.90;;;;;;4955612;28;20249;-78
2022/01/14 11:06:31;;;;;;;49.70;23.05;;;7.10;99.90;;;;;;4955948;28;20163;-78
2022/01/14 11:09:07;;;;;;;49.60;22.38;;;7.20;99.90;;;;;;4955087;28;20182;-87
2022/01/14 11:11:38;;;;;;;43.05;22.63;;;7.20;99.90;;;;;;4955605;28;20209;-79
2022/01/14 11:14:05;;;;;;;43.95;21.00;;;7.40;99.90;;;;;;4954818;29;20166;-78
2022/01/14 11:16:31;;;;;;;38.92;21.25;;;7.40;99.90;;;;;;4955101;28;20587;-79
2022/01/14 11:19:00;;;;;;;36.95;20.33;;;7.40;99.90;;;;;;4955782;28;20162;-79
2022/01/14 11:24:23;;;;;;;31.13;20.35;;;7.50;99.90;;;;;;4954944;29;20182;-78
2022/01/14 11:26:49;;;;;;;41.47;20.52;;;7.40;99.90;;;;;;4969895;28;20241;-79
2022/01/14 11:29:20;;;;;;;35.72;21.63;;;7.50;99.90;;;;;;4970449;28;20221;-78
2022/01/14 11:31:59;;;;;;;38.53;21.88;;;7.50;99.90;;;;;;4955883;28;20210;-78
2022/01/14 11:34:39;;;;;;;39.83;22.63;;;7.60;99.90;;;;;;4956048;28;20177;-79
2022/01/14 11:37:07;;;;;;;38.40;22.67;;;7.60;99.90;;;;;;4955005;28;20707;-78
2022/01/14 11:39:36;;;;;;;43.85;24.48;;;7.60;99.90;;;;;;4954600;28;20182;-79
2022/01/14 11:42:05;;;;;;;40.63;21.40;;;7.60;99.90;;;;;;4969425;28;20697;-80
2022/01/14 11:45:02;;;;;;;51.72;22.42;;;7.50;99.90;;;;;;4969389;28;20266;-80
2022/01/14 11:47:31;;;;;;;38.78;21.48;;;7.40;99.90;;;;;;4955362;28;20175;-80
2022/01/14 11:49:58;;;;;;;37.20;22.90;;;7.70;99.90;;;;;;4969197;28;20199;-80
2022/01/14 11:52:42;;;;;;;46.08;23.65;;;7.80;99.90;;;;;;4953203;28;20198;-81
2022/01/14 11:55:23;;;;;;;40.85;23.00;;;7.60;99.90;;;;;;4969529;28;20527;-79
2022/01/14 11:57:51;;;;;;;46.33;24.15;;;7.50;99.90;;;;;;4955145;28;20663;-81
2022/01/14 12:00:30;;;;;;;40.03;22.90;;;7.60;99.90;;;;;;4953144;28;20230;-79
2022/01/14 12:03:25;;;;;;;39.40;22.75;;;7.70;99.90;;;;;;4954213;28;20175;-81
2022/01/14 12:05:55;;;;;;;45.40;22.58;;;7.50;99.90;;;;;;4954177;29;20182;-81
2022/01/14 12:08:23;;;;;;;48.15;22.05;;;7.60;99.90;;;;;;4968715;28;20261;-81
2022/01/14 12:10:54;;;;;;;36.13;21.35;;;7.60;99.90;;;;;;4957486;28;20271;-82
2022/01/14 12:16:00;;;;;;;33.28;21.10;;;7.70;99.90;;;;;;4958023;28;20222;-82
2022/01/14 12:18:56;;;;;;;36.53;20.40;;;7.80;99.90;;;;;;4957648;28;20162;-81
2022/01/14 12:21:48;;;;;;;40.33;20.70;;;7.70;99.90;;;;;;4957396;28;20674;-82
2022/01/14 12:24:27;;;;;;;32.97;19.75;;;7.70;99.90;;;;;;4956230;29;20281;-80
2022/01/14 12:27:07;;;;;;;40.75;20.90;;;7.80;99.90;;;;;;4972545;28;20588;-82
2022/01/14 12:29:47;;;;;;;31.90;20.15;;;8.00;99.90;;;;;;4972137;28;20222;-80
2022/01/14 12:32:31;;;;;;;28.48;19.35;;;8.20;99.90;;;;;;4972173;28;20730;-81
2022/01/14 12:34:58;;;;;;;39.90;20.00;;;7.90;99.90;;;;;;4957769;28;20241;-80
2022/01/14 12:37:29;;;;;;;43.55;21.73;;;7.90;99.90;;;;;;4957640;28;20167;-81
2022/01/14 12:39:56;;;;;;;32.33;19.92;;;8.10;99.90;;;;;;4956493;28;20201;-80
2022/01/14 12:42:23;;;;;;;33.10;18.83;;;8.10;99.90;;;;;;4956605;28;20178;-86
2022/01/14 12:44:52;;;;;;;34.45;18.98;;;8.20;99.90;;;;;;4971744;28;20185;-80
2022/01/14 12:47:32;;;;;;;34.03;19.50;;;8.30;99.90;;;;;;4972138;28;20653;-79
2022/01/14 12:50:08;;;;;;;31.05;20.20;;;8.20;99.90;;;;;;4971700;28;20198;-80
2022/01/14 12:52:50;;;;;;;28.90;18.63;;;8.40;99.90;;;;;;4972578;28;20197;-80
2022/01/14 12:55:17;;;;;;;29.98;19.20;;;8.60;99.90;;;;;;4957425;28;20177;-80
2022/01/14 12:57:43;;;;;;;29.60;20.25;;;8.60;99.90;;;;;;4956799;28;20619;-86
2022/01/14 13:00:11;;;;;;;34.67;19.63;;;8.60;99.90;;;;;;4972495;28;20197;-80
2022/01/14 13:02:38;;;;;;;34.72;19.45;;;8.60;99.90;;;;;;4957430;28;20250;-79
2022/01/14 13:05:06;;;;;;;28.95;18.08;;;8.50;99.90;;;;;;4957377;28;20175;-80
2022/01/14 13:07:34;;;;;;;27.67;16.45;;;8.40;99.90;;;;;;4972413;28;20186;-80
2022/01/14 13:10:00;;;;;;;30.90;17.15;;;8.30;99.90;;;;;;4956019;28;20285;-80
2022/01/14 13:12:32;;;;;;;23.13;17.13;;;8.40;99.90;;;;;;4971818;28;20677;-84